Time;durP1;ratioP1;P1;durP2;ratioP2;P2;SDS_P1;SDS_P2;PMS_P1;PMS_P2;Temp;Humidity;BMP_temperature;BMP_pressure;BME280_temperature;BME280_humidity;BME280_pressure;Samples;Min_cycle;Max_cycle;Signal;HPM_P1;HPM_P2
2023/12/04 10:39:13;;;;;;;;;;;;;;;1.86;100;100664;;;;-93
2023/12/04 10:44:40;;;;;;;;;;;;;;;1.87;100;100664.2;;;;-92
2023/12/04 10:49:24;;;;;;;;;;;;;;;1.89;100;100653.4;;;;-90
2023/12/04 10:50:58;;;;;;;11.8;5.8;;;;;;;;;;;;;-92
2023/12/04 10:59:15;;;;;;;;;;;;;;;1.91;100;100623.1;;;;-91
2023/12/04 11:04:20;;;;;;;;;;;;;;;1.95;100;100611.7;;;;-92
2023/12/04 11:09:13;;;;;;;;;;;;;;;2.04;100;100609.5;;;;-92
2023/12/04 11:14:21;;;;;;;;;;;;;;;2.12;100;100596.6;;;;-92
2023/12/04 11:19:16;;;;;;;;;;;;;;;2.18;100;100583.5;;;;-92
2023/12/04 11:21:18;;;;;;;11.1;5.7;;;;;;;;;;;;;-92
2023/12/04 11:24:16;;;;;;;;;;;;;;;2.22;100;100582;;;;-93
2023/12/04 11:34:14;;;;;;;;;;;;;;;2.37;100;100572.9;;;;-90
2023/12/04 11:44:24;;;;;;;;;;;;;;;2.56;100;100562.3;;;;-93
2023/12/04 11:49:22;;;;;;;;;;;;;;;2.51;100;100561;;;;-93
2023/12/04 12:04:29;;;;;;;;;;;;;;;2.48;100;100543.2;;;;-92
2023/12/04 12:14:22;;;;;;;;;;;;;;;2.48;100;100527.4;;;;-83
2023/12/04 12:19:38;;;;;;;;;;;;;;;;;;;;;
2023/12/04 12:32:27;;;;;;;;;;;;;;;2.48;100;100517.1;;;;-84
2023/12/04 12:42:43;;;;;;;;;;;;;;;2.49;100;100505.3;;;;-85
2023/12/04 12:52:33;;;;;;;;;;;;;;;2.47;100;100491.5;;;;-84
2023/12/04 13:37:56;;;;;;;;;;;;;;;;;;;;;
2023/12/04 13:57:52;;;;;;;;;;;;;;;2.11;100;100380.1;;;;-82
2023/12/04 17:41:18;;;;;;;;;;;;;;;1.61;100;100258.3;;;;-83
2023/12/04 17:59:38;;;;;;;;;;;;;;;1.71;100;100240.5;;;;-82
2023/12/04 18:04:38;;;;;;;;;;;;;;;1.69;100;100237.4;;;;-83
2023/12/04 18:13:29;;;;;;;;;;;;;;;1.66;100;100232.7;;;;-83
2023/12/04 18:18:16;;;;;;;;;;;;;;;;;;;;;
2023/12/04 18:35:26;;;;;;;;;;;;;;;1.58;100;100207.2;;;;-82
2023/12/04 18:40:59;;;;;;;;;;;;;;;;;;;;;
2023/12/04 18:45:42;;;;;;;;;;;;;;;1.57;100;100198.6;;;;-82
2023/12/04 18:51:25;;;;;;;26.2;13.7;;;;;;;;;;;;;-83
2023/12/04 18:55:35;;;;;;;;;;;;;;;1.56;100;100193.8;;;;-82
2023/12/04 19:07:53;;;;;;;;;;;;;;;1.51;100;100185.9;;;;-82
2023/12/04 19:13:07;;;;;;;;;;;;;;;1.49;100;100185.4;;;;-82
2023/12/04 19:17:58;;;;;;;;;;;;;;;1.47;100;100183.8;;;;-84
2023/12/04 19:27:56;;;;;;;;;;;;;;;1.48;100;100179;;;;-82
2023/12/04 19:33:12;;;;;;;;;;;;;;;;;;;;;
2023/12/04 19:47:44;;;;;;;;;;;;;;;1.48;100;100155.1;;;;-82
2023/12/04 19:50:58;;;;;;;38.2;18.2;;;;;;;;;;;;;-82
2023/12/04 19:53:03;;;;;;;;;;;;;;;1.46;100;100163.2;;;;-83
2023/12/04 19:57:49;;;;;;;;;;;;;;;1.48;100;100159.9;;;;-83
2023/12/04 20:02:53;;;;;;;;;;;;;;;1.47;100;100164.3;;;;-83
2023/12/04 20:07:49;;;;;;;;;;;;;;;1.46;100;100158.5;;;;-83
2023/12/04 20:12:48;;;;;;;;;;;;;;;1.44;100;100158.3;;;;-82
2023/12/04 20:17:49;;;;;;;;;;;;;;;1.47;100;100149.9;;;;-82
2023/12/04 20:20:46;;;;;;;36.8;18.5;;;;;;;;;;;;;-82
2023/12/04 20:22:47;;;;;;;;;;;;;;;1.46;100;100151.4;;;;-82
2023/12/04 20:27:45;;;;;;;;;;;;;;;1.44;100;100137.5;;;;-80
2023/12/04 20:32:44;;;;;;;;;;;;;;;1.45;100;100135.2;;;;-81
2023/12/04 20:37:49;;;;;;;;;;;;;;;1.42;100;100130.3;;;;-81
2023/12/04 20:42:43;;;;;;;;;;;;;;;1.43;100;100129.9;;;;-81
2023/12/04 20:47:58;;;;;;;;;;;;;;;1.4;100;100130.5;;;;-82
2023/12/04 20:50:39;;;;;;;30.2;15.4;;;;;;;;;;;;;-83
2023/12/04 20:53:12;;;;;;;;;;;;;;;1.34;100;100134.5;;;;-82
2023/12/04 20:57:46;;;;;;;;;;;;;;;1.3;100;100133.8;;;;-83
2023/12/04 21:02:48;;;;;;;;;;;;;;;1.34;100;100135.2;;;;-82
2023/12/04 21:07:48;;;;;;;;;;;;;;;1.32;100;100136.8;;;;-83
2023/12/04 21:12:50;;;;;;;;;;;;;;;1.26;100;100138.8;;;;-84
2023/12/04 21:18:04;;;;;;;;;;;;;;;1.25;100;100134.9;;;;-83
2023/12/04 21:20:57;;;;;;;35.1;16.2;;;;;;;;;;;;;-84
2023/12/04 21:27:44;;;;;;;;;;;;;;;1.16;100;100135.9;;;;-83
2023/12/04 21:32:49;;;;;;;;;;;;;;;1.12;100;100127.8;;;;-81
2023/12/04 21:37:44;;;;;;;;;;;;;;;1.13;100;100130.3;;;;-83
2023/12/04 21:42:56;;;;;;;;;;;;;;;1.11;100;100126.4;;;;-84
2023/12/04 21:47:44;;;;;;;;;;;;;;;1.12;100;100127.3;;;;-82
2023/12/04 21:52:54;;;;;;;;;;;;;;;1.15;100;100125.9;;;;-83
2023/12/04 21:57:49;;;;;;;;;;;;;;;1.16;100;100119;;;;-82
2023/12/04 22:02:59;;;;;;;;;;;;;;;1.15;100;100115.4;;;;-83
2023/12/04 22:08:05;;;;;;;;;;;;;;;1.18;100;100110.9;;;;-91
2023/12/04 22:13:02;;;;;;;;;;;;;;;1.19;100;100104.5;;;;-92
2023/12/04 22:17:55;;;;;;;;;;;;;;;1.2;100;100108.1;;;;-91
2023/12/04 22:22:55;;;;;;;;;;;;;;;1.21;100;100105.2;;;;-91
